createdAt,value
2019-02-28T00:01:46.340Z,33.83
2019-02-28T00:04:15.542Z,40.47
2019-02-28T00:06:45.128Z,40.30
2019-02-28T00:09:14.321Z,39.40
2019-02-28T00:11:43.514Z,30.37
2019-02-28T00:14:12.538Z,34.10
2019-02-28T00:16:41.735Z,40.27
2019-02-28T00:19:10.625Z,41.90
2019-02-28T00:21:40.433Z,44.50
2019-02-28T00:24:10.353Z,42.37
2019-02-28T00:26:39.260Z,41.50
2019-02-28T00:29:09.494Z,41.37
2019-02-28T00:31:38.593Z,40.73
2019-02-28T00:34:07.654Z,38.17
2019-02-28T00:36:36.438Z,40.70
2019-02-28T00:39:05.713Z,40.03
2019-02-28T00:41:36.266Z,39.83
2019-02-28T00:44:05.054Z,39.83
2019-02-28T00:46:34.150Z,42.47
2019-02-28T00:49:03.142Z,42.47
2019-02-28T00:51:32.145Z,40.23
2019-02-28T00:54:00.937Z,40.63
2019-02-28T00:56:29.810Z,40.07
2019-02-28T00:59:00.459Z,39.47
2019-02-28T01:01:29.208Z,45.97
2019-02-28T01:03:58.203Z,41.07
2019-02-28T01:06:28.139Z,47.03
2019-02-28T01:08:57.240Z,40.90
2019-02-28T01:11:26.122Z,38.47
2019-02-28T01:13:55.112Z,40.53
2019-02-28T01:16:24.027Z,42.67
2019-02-28T01:18:53.922Z,41.77
2019-02-28T01:21:24.018Z,39.57
2019-02-28T01:23:53.421Z,43.50
2019-02-28T01:26:22.019Z,42.27
2019-02-28T01:28:51.087Z,39.20
2019-02-28T01:31:20.738Z,42.97
2019-02-28T01:33:49.617Z,39.80
2019-02-28T01:36:18.299Z,38.23
2019-02-28T01:38:47.246Z,41.77
2019-02-28T01:41:16.251Z,44.53
2019-02-28T01:43:44.966Z,43.13
2019-02-28T01:46:14.416Z,44.83
2019-02-28T01:48:44.387Z,45.50
2019-02-28T01:51:13.480Z,47.80
2019-02-28T01:53:42.473Z,47.53
2019-02-28T01:56:11.393Z,44.00
2019-02-28T01:58:40.152Z,44.10
2019-02-28T02:01:08.940Z,48.90
2019-02-28T02:03:40.647Z,45.73
2019-02-28T02:06:08.025Z,50.07
2019-02-28T02:08:37.806Z,49.23
2019-02-28T02:11:08.289Z,49.37
2019-02-28T02:13:37.499Z,51.97
2019-02-28T02:16:06.681Z,44.40
2019-02-28T02:18:35.776Z,51.97
2019-02-28T02:21:04.566Z,49.90
2019-02-28T02:23:33.658Z,49.97
2019-02-28T02:26:02.959Z,45.43
2019-02-28T02:28:33.078Z,51.90
2019-02-28T02:31:01.770Z,46.73
2019-02-28T02:33:30.755Z,46.60
2019-02-28T02:35:59.750Z,45.30
2019-02-28T02:38:28.953Z,45.83
2019-02-28T02:41:00.585Z,47.43
2019-02-28T02:43:28.570Z,44.00
2019-02-28T02:45:57.472Z,43.83
2019-02-28T02:48:26.553Z,44.97
2019-02-28T02:50:55.647Z,45.43
2019-02-28T02:53:24.434Z,48.77
2019-02-28T02:55:53.222Z,47.37
2019-02-28T02:58:26.889Z,42.93
2019-02-28T03:00:52.947Z,49.37
2019-02-28T03:03:21.942Z,43.70
2019-02-28T03:05:50.832Z,44.80
2019-02-28T03:08:19.924Z,46.00
2019-02-28T03:10:51.870Z,43.57
2019-02-28T03:13:19.757Z,43.87
2019-02-28T03:15:48.954Z,44.67
2019-02-28T03:18:20.469Z,42.80
2019-02-28T03:20:48.266Z,42.87
2019-02-28T03:23:17.160Z,45.63
2019-02-28T03:25:46.151Z,44.17
2019-02-28T03:28:15.357Z,41.87
2019-02-28T03:30:44.368Z,45.40
2019-02-28T03:33:23.945Z,45.07
2019-02-28T03:35:44.802Z,40.80
2019-02-28T03:38:13.678Z,45.30
2019-02-28T03:40:42.411Z,47.10
2019-02-28T03:43:11.319Z,46.57
2019-02-28T03:45:40.040Z,47.23
2019-02-28T03:48:09.233Z,41.27
2019-02-28T03:50:38.123Z,46.60
2019-02-28T03:53:07.116Z,45.27
2019-02-28T03:55:40.292Z,43.93
2019-02-28T03:58:06.844Z,42.23
2019-02-28T04:00:35.903Z,44.67
2019-02-28T04:03:04.919Z,40.33
2019-02-28T04:05:38.900Z,37.10
2019-02-28T04:08:07.479Z,39.13
2019-02-28T04:10:36.467Z,37.93
2019-02-28T04:13:05.206Z,42.20
2019-02-28T04:15:34.191Z,33.17
2019-02-28T04:18:06.615Z,34.50
2019-02-28T04:20:37.405Z,34.05
2019-02-28T04:23:04.148Z,31.13
2019-02-28T04:27:06.503Z,31.27
2019-02-28T04:29:31.553Z,31.17
2019-02-28T04:32:00.229Z,27.75
2019-02-28T04:34:29.878Z,29.70
2019-02-28T04:36:58.673Z,29.50
2019-02-28T04:39:31.788Z,31.47
2019-02-28T04:42:05.037Z,29.27
2019-02-28T04:44:33.518Z,30.77
2019-02-28T04:47:03.373Z,30.13
2019-02-28T04:49:32.551Z,30.07
2019-02-28T04:52:01.415Z,31.27
2019-02-28T04:54:30.057Z,28.73
2019-02-28T04:56:58.824Z,30.77
2019-02-28T04:59:27.441Z,27.83
2019-02-28T05:01:56.072Z,31.03
2019-02-28T05:04:24.805Z,27.47
2019-02-28T05:06:55.307Z,31.53
2019-02-28T05:09:42.129Z,33.17
2019-02-28T05:12:24.828Z,32.63
2019-02-28T05:15:07.854Z,34.50
2019-02-28T05:21:16.498Z,39.20
2019-02-28T05:23:45.762Z,46.30
2019-02-28T05:26:14.962Z,42.33
2019-02-28T05:28:43.542Z,35.33
2019-02-28T05:31:12.248Z,40.83
2019-02-28T05:33:42.007Z,40.57
2019-02-28T05:36:12.081Z,38.40
2019-02-28T05:38:40.745Z,42.20
2019-02-28T05:41:12.112Z,49.47
2019-02-28T05:43:41.013Z,54.03
2019-02-28T05:46:09.892Z,50.00
2019-02-28T05:48:38.729Z,58.40
2019-02-28T05:51:08.309Z,57.33
2019-02-28T05:53:36.794Z,52.97
2019-02-28T05:56:05.604Z,59.17
2019-02-28T05:58:34.111Z,53.47
2019-02-28T06:01:02.763Z,56.60
2019-02-28T06:03:31.464Z,58.93
2019-02-28T06:06:00.146Z,50.53
2019-02-28T06:08:28.996Z,51.37
2019-02-28T06:11:00.634Z,59.13
2019-02-28T06:13:27.945Z,53.73
2019-02-28T06:15:56.693Z,55.23
2019-02-28T06:18:27.007Z,54.47
2019-02-28T06:20:55.617Z,49.25
2019-02-28T06:23:24.304Z,50.73
2019-02-28T06:25:55.783Z,45.50
2019-02-28T06:28:23.440Z,49.60
2019-02-28T06:30:52.214Z,48.00
2019-02-28T06:33:21.279Z,48.73
2019-02-28T06:35:53.540Z,56.73
2019-02-28T06:38:21.561Z,52.63
2019-02-28T06:40:50.312Z,50.50
2019-02-28T06:43:19.615Z,50.73
2019-02-28T06:45:48.603Z,47.53
2019-02-28T06:48:17.139Z,50.70
2019-02-28T06:50:45.787Z,47.47
2019-02-28T06:53:14.412Z,53.13
2019-02-28T06:55:48.777Z,53.20
2019-02-28T06:58:17.752Z,51.70
2019-02-28T07:00:47.403Z,49.27
2019-02-28T07:03:16.744Z,52.48
2019-02-28T07:05:45.151Z,49.03
2019-02-28T07:08:13.795Z,52.73
2019-02-28T07:10:44.926Z,52.97
2019-02-28T07:13:13.865Z,53.68
2019-02-28T07:15:42.535Z,57.70
2019-02-28T07:18:11.303Z,55.67
2019-02-28T07:20:40.060Z,55.48
2019-02-28T07:23:08.869Z,49.43
2019-02-28T07:25:37.529Z,49.97
2019-02-28T07:28:06.215Z,46.07
2019-02-28T07:30:34.858Z,52.57
2019-02-28T07:33:09.510Z,50.37
2019-02-28T07:35:36.763Z,57.23
2019-02-28T07:38:04.413Z,49.93
2019-02-28T07:40:33.319Z,51.40
2019-02-28T07:43:01.996Z,46.80
2019-02-28T07:45:33.121Z,49.30
2019-02-28T07:48:01.204Z,50.15
2019-02-28T07:50:29.884Z,47.93
2019-02-28T07:52:58.602Z,55.40
2019-02-28T07:55:30.349Z,45.33
2019-02-28T07:57:57.821Z,44.97
2019-02-28T08:00:26.340Z,52.63
2019-02-28T08:02:54.847Z,51.80
2019-02-28T08:05:29.903Z,49.97
2019-02-28T08:07:54.182Z,43.10
2019-02-28T08:10:22.818Z,42.97
2019-02-28T08:12:51.547Z,37.97
2019-02-28T08:15:22.548Z,34.80
2019-02-28T08:17:51.703Z,37.80
2019-02-28T08:20:20.763Z,42.23
2019-02-28T08:22:49.988Z,41.73
2019-02-28T08:25:18.634Z,40.20
2019-02-28T08:27:47.420Z,37.30
2019-02-28T08:30:19.419Z,37.23
2019-02-28T08:32:48.927Z,37.93
2019-02-28T08:35:18.163Z,40.37
2019-02-28T08:37:46.993Z,38.53
2019-02-28T08:40:17.268Z,36.00
2019-02-28T08:42:45.970Z,37.37
2019-02-28T08:45:14.956Z,33.47
2019-02-28T08:47:43.683Z,41.70
2019-02-28T08:50:18.910Z,40.57
2019-02-28T08:52:48.364Z,44.33
2019-02-28T08:55:28.406Z,42.63
2019-02-28T08:57:54.727Z,45.27
2019-02-28T09:00:31.109Z,42.33
2019-02-28T09:02:58.358Z,46.03
2019-02-28T09:05:29.923Z,45.40
2019-02-28T09:07:58.551Z,45.20
2019-02-28T09:10:28.130Z,38.53
2019-02-28T09:12:56.991Z,43.40
2019-02-28T09:15:30.080Z,43.30
2019-02-28T09:17:59.448Z,32.53
2019-02-28T09:20:27.846Z,38.33
2019-02-28T09:23:01.551Z,32.03
2019-02-28T09:25:28.820Z,34.63
2019-02-28T09:27:57.433Z,35.80
2019-02-28T09:30:37.610Z,32.83
2019-02-28T09:33:06.380Z,39.23
2019-02-28T09:35:35.021Z,34.97
2019-02-28T09:38:07.655Z,33.93
2019-02-28T09:40:34.320Z,33.97
2019-02-28T09:43:04.223Z,37.63
2019-02-28T09:45:33.010Z,36.47
2019-02-28T09:48:02.327Z,41.80
2019-02-28T09:50:33.056Z,36.97
2019-02-28T09:53:01.824Z,36.80
2019-02-28T09:55:34.137Z,40.53
2019-02-28T09:58:01.060Z,38.10
2019-02-28T10:00:30.630Z,37.27
2019-02-28T10:02:59.335Z,35.03
2019-02-28T10:05:27.917Z,31.07
2019-02-28T10:08:01.474Z,40.37
2019-02-28T10:10:26.910Z,39.47
2019-02-28T10:12:56.864Z,32.37
2019-02-28T10:15:27.102Z,32.57
2019-02-28T10:17:55.758Z,39.63
2019-02-28T10:20:27.219Z,36.93
2019-02-28T10:22:56.277Z,41.60
2019-02-28T10:25:25.019Z,43.97
2019-02-28T10:27:54.675Z,40.80
2019-02-28T10:30:31.131Z,44.80
2019-02-28T10:32:54.323Z,39.07
2019-02-28T10:35:22.933Z,46.63
2019-02-28T10:37:57.435Z,47.90
2019-02-28T10:40:23.130Z,51.40
2019-02-28T10:42:51.968Z,51.63
2019-02-28T10:45:21.421Z,50.93
2019-02-28T10:47:49.950Z,50.70
2019-02-28T10:50:20.092Z,50.30
2019-02-28T10:52:48.437Z,56.10
2019-02-28T10:55:19.460Z,52.97
2019-02-28T10:57:47.154Z,57.57
2019-02-28T11:00:20.214Z,53.33
2019-02-28T11:02:50.415Z,56.93
2019-02-28T11:05:21.362Z,58.47
2019-02-28T11:07:50.009Z,53.17
2019-02-28T11:10:18.948Z,63.47
2019-02-28T11:12:47.438Z,50.43
2019-02-28T11:15:17.609Z,52.03
2019-02-28T11:17:46.050Z,57.70
2019-02-28T11:20:21.866Z,60.03
2019-02-28T11:22:44.578Z,54.30
2019-02-28T11:25:14.532Z,53.68
2019-02-28T11:27:42.941Z,53.27
2019-02-28T11:32:56.032Z,57.07
2019-02-28T11:35:24.570Z,56.07
2019-02-28T11:37:53.037Z,58.53
2019-02-28T11:40:22.827Z,57.13
2019-02-28T11:42:51.337Z,56.50
2019-02-28T11:45:22.038Z,60.27
2019-02-28T11:47:52.727Z,60.20
2019-02-28T11:50:21.181Z,58.70
2019-02-28T11:52:49.705Z,63.30
2019-02-28T11:55:20.409Z,60.17
2019-02-28T11:57:48.596Z,64.87
2019-02-28T12:00:21.464Z,59.40
2019-02-28T12:02:53.248Z,68.13
2019-02-28T12:05:20.044Z,69.60
2019-02-28T12:07:48.295Z,67.33
2019-02-28T12:10:17.400Z,68.05
2019-02-28T12:12:45.823Z,63.60
2019-02-28T12:15:14.870Z,65.47
2019-02-28T12:17:43.228Z,67.17
2019-02-28T12:20:12.138Z,62.90
2019-02-28T12:22:44.038Z,65.60
2019-02-28T12:25:11.530Z,65.03
2019-02-28T12:27:40.003Z,65.47
2019-02-28T12:30:10.416Z,64.40
2019-02-28T12:32:40.240Z,61.87
2019-02-28T12:35:09.058Z,65.37
2019-02-28T12:37:37.637Z,63.70
2019-02-28T12:40:07.364Z,68.00
2019-02-28T12:42:37.544Z,68.47
2019-02-28T12:45:07.720Z,67.33
2019-02-28T12:47:38.635Z,71.90
2019-02-28T12:50:07.827Z,68.47
2019-02-28T12:52:36.461Z,67.27
2019-02-28T12:55:05.271Z,70.80
2019-02-28T12:57:33.744Z,75.67
2019-02-28T13:00:02.383Z,72.20
2019-02-28T13:02:30.639Z,73.63
2019-02-28T13:04:59.189Z,66.07
2019-02-28T13:07:30.470Z,71.57
2019-02-28T13:09:57.869Z,74.87
2019-02-28T13:12:26.119Z,69.53
2019-02-28T13:14:54.855Z,74.27
2019-02-28T13:17:23.596Z,76.87
2019-02-28T13:19:53.155Z,74.87
2019-02-28T13:22:23.524Z,81.57
2019-02-28T13:24:52.576Z,75.97
2019-02-28T13:27:21.138Z,79.67
2019-02-28T13:29:53.271Z,73.40
2019-02-28T13:32:22.447Z,75.70
2019-02-28T13:34:50.792Z,81.70
2019-02-28T13:37:19.334Z,74.33
2019-02-28T13:39:47.810Z,81.63
2019-02-28T13:42:16.251Z,82.13
2019-02-28T13:44:51.627Z,80.35
2019-02-28T13:47:22.240Z,79.03
2019-02-28T13:49:50.723Z,74.20
2019-02-28T13:52:20.860Z,77.53
2019-02-28T13:54:57.115Z,79.97
2019-02-28T13:57:32.744Z,77.40
2019-02-28T14:00:09.045Z,76.50
2019-02-28T14:02:44.025Z,76.20
2019-02-28T14:05:14.618Z,81.33
2019-02-28T14:07:43.864Z,75.60
2019-02-28T14:10:12.829Z,78.40
2019-02-28T14:12:41.959Z,76.03
2019-02-28T14:15:15.440Z,74.40
2019-02-28T14:17:43.227Z,79.37
2019-02-28T14:20:13.416Z,84.80
2019-02-28T14:22:45.832Z,79.03
2019-02-28T14:25:15.705Z,80.10
2019-02-28T14:27:44.944Z,78.70
2019-02-28T14:30:15.765Z,80.17
2019-02-28T14:32:46.484Z,76.67
2019-02-28T14:35:16.245Z,80.57
2019-02-28T14:40:28.236Z,80.30
2019-02-28T14:42:58.292Z,80.22
2019-02-28T14:45:28.253Z,74.60
2019-02-28T14:47:57.516Z,81.80
2019-02-28T14:50:27.572Z,86.27
2019-02-28T14:52:56.786Z,86.53
2019-02-28T14:55:32.251Z,78.23
2019-02-28T14:58:00.659Z,81.97
2019-02-28T15:00:30.091Z,80.03
2019-02-28T15:03:03.020Z,87.03
2019-02-28T15:05:30.996Z,80.73
2019-02-28T15:08:01.126Z,88.03
2019-02-28T15:10:30.394Z,79.33
2019-02-28T15:12:59.669Z,79.77
2019-02-28T15:15:28.534Z,80.13
2019-02-28T15:17:58.512Z,82.40
2019-02-28T15:20:31.512Z,84.43
2019-02-28T15:22:59.595Z,82.87
2019-02-28T15:25:29.240Z,79.80
2019-02-28T15:28:03.710Z,81.03
2019-02-28T15:30:42.771Z,79.17
2019-02-28T15:33:14.651Z,81.67
2019-02-28T15:35:46.503Z,77.07
2019-02-28T15:38:15.993Z,83.83
2019-02-28T15:40:44.951Z,82.57
2019-02-28T15:43:16.975Z,79.00
2019-02-28T15:45:45.711Z,85.27
2019-02-28T15:48:15.126Z,83.57
2019-02-28T15:50:48.376Z,88.63
2019-02-28T15:53:16.766Z,85.47
2019-02-28T15:55:46.517Z,80.67
2019-02-28T15:58:16.812Z,80.73
2019-02-28T16:00:46.519Z,79.77
2019-02-28T16:03:16.742Z,83.53
2019-02-28T16:05:47.009Z,78.90
2019-02-28T16:08:17.343Z,86.53
2019-02-28T16:10:53.161Z,83.33
2019-02-28T16:13:19.118Z,76.73
2019-02-28T16:15:50.221Z,81.57
2019-02-28T16:18:20.498Z,80.23
2019-02-28T16:20:49.811Z,81.93
2019-02-28T16:23:19.592Z,86.83
2019-02-28T16:25:50.199Z,84.23
2019-02-28T16:28:19.914Z,98.43
2019-02-28T16:30:49.610Z,107.63
2019-02-28T16:33:20.946Z,88.27
2019-02-28T16:35:51.404Z,90.50
2019-02-28T16:38:21.021Z,98.40
2019-02-28T16:40:50.886Z,101.60
2019-02-28T16:43:20.838Z,110.73
2019-02-28T16:45:51.390Z,100.77
2019-02-28T16:48:21.193Z,100.27
2019-02-28T16:50:53.804Z,95.23
2019-02-28T16:53:23.794Z,93.73
2019-02-28T16:55:53.443Z,93.60
2019-02-28T16:58:23.083Z,103.53
2019-02-28T17:00:52.647Z,91.70
2019-02-28T17:03:22.098Z,95.43
2019-02-28T17:05:51.861Z,93.10
2019-02-28T17:08:21.083Z,93.50
2019-02-28T17:10:51.336Z,100.83
2019-02-28T17:13:30.131Z,97.77
2019-02-28T17:16:25.264Z,89.13
2019-02-28T17:18:56.735Z,103.13
2019-02-28T17:21:27.871Z,107.17
2019-02-28T17:23:58.434Z,105.43
2019-02-28T17:26:46.292Z,92.83
2019-02-28T17:29:25.106Z,96.43
2019-02-28T17:31:55.472Z,104.73
2019-02-28T17:34:25.702Z,112.17
2019-02-28T17:36:55.671Z,117.57
2019-02-28T17:39:26.279Z,100.97
2019-02-28T17:41:57.564Z,111.03
2019-02-28T17:44:46.603Z,108.47
2019-02-28T17:47:25.694Z,101.93
2019-02-28T17:50:16.341Z,108.77
2019-02-28T17:52:48.461Z,102.03
2019-02-28T17:55:35.532Z,106.07
2019-02-28T17:58:13.780Z,94.67
2019-02-28T18:00:56.390Z,89.87
2019-02-28T18:03:35.792Z,97.80
2019-02-28T18:06:11.972Z,85.20
2019-02-28T18:09:05.892Z,90.30
2019-02-28T18:11:46.123Z,115.10
2019-02-28T18:14:37.518Z,118.90
2019-02-28T18:17:18.894Z,112.87
2019-02-28T18:19:59.160Z,121.97
2019-02-28T18:22:35.548Z,118.97
2019-02-28T18:25:33.912Z,131.07
2019-02-28T18:28:18.938Z,126.90
2019-02-28T18:31:07.513Z,114.43
2019-02-28T18:33:38.257Z,123.43
2019-02-28T18:36:09.796Z,129.93
2019-02-28T18:38:39.923Z,128.03
2019-02-28T18:41:10.180Z,120.87
2019-02-28T18:43:40.539Z,118.80
2019-02-28T18:46:11.254Z,124.10
2019-02-28T18:48:41.601Z,137.97
2019-02-28T18:51:12.385Z,147.77
2019-02-28T18:53:43.239Z,148.20
2019-02-28T18:56:14.023Z,125.10
2019-02-28T18:58:44.086Z,118.93
2019-02-28T19:01:14.662Z,116.67
2019-02-28T19:03:45.006Z,111.40
2019-02-28T19:06:15.436Z,103.93
2019-02-28T19:08:46.307Z,106.77
2019-02-28T19:11:17.120Z,97.80
2019-02-28T19:13:47.785Z,99.83
2019-02-28T19:16:18.745Z,87.33
2019-02-28T19:18:48.543Z,87.00
2019-02-28T19:21:18.625Z,82.53
2019-02-28T19:23:49.021Z,78.50
2019-02-28T19:26:19.869Z,78.83
2019-02-28T19:28:50.860Z,81.63
2019-02-28T19:31:21.070Z,81.67
2019-02-28T19:33:51.915Z,85.67
2019-02-28T19:36:22.713Z,85.33
2019-02-28T19:38:58.311Z,74.97
2019-02-28T19:41:36.488Z,71.90
2019-02-28T19:44:10.245Z,73.77
2019-02-28T19:46:46.159Z,74.20
2019-02-28T19:49:16.630Z,69.00
2019-02-28T19:51:47.014Z,69.30
2019-02-28T19:54:17.881Z,66.60
2019-02-28T19:56:48.126Z,65.13
2019-02-28T19:59:17.943Z,65.37
2019-02-28T20:01:47.832Z,63.27
2019-02-28T20:04:18.211Z,58.00
2019-02-28T20:06:47.892Z,58.60
2019-02-28T20:09:17.846Z,58.97
2019-02-28T20:11:47.480Z,55.77
2019-02-28T20:14:17.323Z,58.00
2019-02-28T20:16:46.870Z,52.77
2019-02-28T20:19:17.263Z,55.53
2019-02-28T20:21:47.492Z,54.00
2019-02-28T20:24:17.454Z,55.47
2019-02-28T20:26:47.809Z,54.63
2019-02-28T20:29:19.050Z,51.37
2019-02-28T20:31:50.162Z,49.50
2019-02-28T20:34:20.181Z,49.67
2019-02-28T20:36:49.990Z,44.07
2019-02-28T20:39:19.892Z,44.93
2019-02-28T20:41:50.433Z,46.40
2019-02-28T20:44:20.120Z,41.37
2019-02-28T20:47:10.558Z,50.67
2019-02-28T20:49:40.205Z,44.53
2019-02-28T20:52:09.873Z,47.90
2019-02-28T20:54:40.709Z,46.77
2019-02-28T20:57:10.692Z,43.70
2019-02-28T20:59:40.445Z,41.57
2019-02-28T21:02:10.003Z,43.00
2019-02-28T21:04:39.601Z,40.80
2019-02-28T21:07:09.716Z,50.30
2019-02-28T21:09:45.003Z,48.47
2019-02-28T21:12:11.300Z,45.67
2019-02-28T21:14:41.247Z,52.50
2019-02-28T21:17:11.058Z,61.23
2019-02-28T21:19:40.787Z,56.27
2019-02-28T21:22:10.356Z,44.40
2019-02-28T21:24:39.877Z,44.80
2019-02-28T21:27:09.392Z,45.90
2019-02-28T21:29:39.919Z,43.73
2019-02-28T21:32:09.954Z,40.70
2019-02-28T21:34:39.851Z,41.17
2019-02-28T21:37:10.692Z,38.13
2019-02-28T21:39:40.514Z,40.13
2019-02-28T21:42:10.310Z,37.57
2019-02-28T21:44:40.397Z,38.57
2019-02-28T21:47:10.015Z,38.13
2019-02-28T21:49:40.339Z,34.73
2019-02-28T21:52:10.505Z,38.80
2019-02-28T21:54:40.497Z,35.57
2019-02-28T21:57:09.581Z,39.67
2019-02-28T21:59:39.133Z,33.53
2019-02-28T22:02:09.113Z,34.07
2019-02-28T22:04:38.984Z,31.80
2019-02-28T22:07:09.200Z,33.30
2019-02-28T22:09:38.852Z,31.83
2019-02-28T22:12:08.422Z,31.37
2019-02-28T22:14:38.173Z,30.90
2019-02-28T22:17:07.960Z,35.57
2019-02-28T22:19:37.286Z,32.93
2019-02-28T22:22:07.063Z,31.73
2019-02-28T22:24:36.388Z,32.67
2019-02-28T22:27:05.891Z,28.60
2019-02-28T22:29:35.893Z,33.77
2019-02-28T22:32:23.928Z,29.83
2019-02-28T22:35:01.016Z,27.97
2019-02-28T22:37:31.105Z,33.73
2019-02-28T22:40:01.229Z,32.13
2019-02-28T22:42:30.740Z,31.13
2019-02-28T22:45:00.445Z,32.37
2019-02-28T22:47:30.146Z,30.30
2019-02-28T22:50:00.102Z,31.07
2019-02-28T22:52:30.444Z,30.80
2019-02-28T22:54:59.919Z,30.73
2019-02-28T22:57:30.748Z,26.60
2019-02-28T22:59:59.966Z,27.97
2019-02-28T23:02:30.305Z,31.07
2019-02-28T23:05:00.465Z,30.57
2019-02-28T23:07:30.255Z,29.83
2019-02-28T23:09:59.825Z,29.17
2019-02-28T23:12:29.316Z,32.57
2019-02-28T23:14:59.244Z,30.40
2019-02-28T23:17:29.101Z,30.23
2019-02-28T23:19:58.493Z,31.83
2019-02-28T23:22:28.350Z,29.50
2019-02-28T23:24:58.734Z,31.17
2019-02-28T23:27:28.893Z,32.03
2019-02-28T23:30:13.946Z,32.93
2019-02-28T23:32:45.113Z,35.20
2019-02-28T23:35:19.046Z,34.87
2019-02-28T23:37:48.607Z,30.13
2019-02-28T23:40:18.441Z,32.23
2019-02-28T23:42:47.914Z,34.13
2019-02-28T23:45:17.470Z,32.43
2019-02-28T23:47:47.038Z,31.90
2019-02-28T23:50:16.693Z,31.70
2019-02-28T23:52:45.765Z,32.67
2019-02-28T23:55:15.466Z,33.33
2019-02-28T23:57:45.064Z,32.93
